Time;durP1;ratioP1;P1;durP2;ratioP2;P2;SDS_P1;SDS_P2;PMS_P1;PMS_P2;Temp;Humidity;BMP_temperature;BMP_pressure;BME280_temperature;BME280_humidity;BME280_pressure;Samples;Min_cycle;Max_cycle;Signal;HPM_P1;HPM_P2
2022/07/24 00:01:17;;;;;;;21.02;7.82;;;;;;;26.58;38.60;95337.66;5089636;28;20091;-85
2022/07/24 00:03:43;;;;;;;26.60;9.15;;;;;;;26.47;38.43;95323.19;5073313;28;20040;-86
2022/07/24 00:06:08;;;;;;;23.48;7.97;;;;;;;26.80;38.67;95372.09;5086555;28;20031;-85
2022/07/24 00:08:34;;;;;;;17.05;8.07;;;;;;;26.73;38.88;95385.63;5085465;28;20130;-85
2022/07/24 00:10:59;;;;;;;22.40;8.77;;;;;;;26.49;39.02;95342.59;5084606;28;20508;-85
2022/07/24 00:13:25;;;;;;;21.08;8.88;;;;;;;24.90;39.29;95121.22;5103458;28;20118;-85
2022/07/24 00:15:50;;;;;;;21.48;8.45;;;;;;;25.67;39.07;95259.25;5085257;28;20035;-85
2022/07/24 00:18:16;;;;;;;22.83;8.63;;;;;;;25.65;39.11;95283.25;5084330;28;20092;-85
2022/07/24 00:20:41;;;;;;;27.25;8.77;;;;;;;26.10;38.91;95325.78;5085390;28;20505;-85
2022/07/24 00:23:06;;;;;;;24.00;8.68;;;;;;;25.57;39.74;95311.44;5084594;28;20127;-85
2022/07/24 00:25:32;;;;;;;29.60;8.75;;;;;;;25.95;39.49;95330.25;5085296;28;20600;-85
2022/07/24 00:27:57;;;;;;;15.93;8.23;;;;;;;25.55;40.34;95300.19;5103880;28;20036;-85
2022/07/24 00:30:23;;;;;;;22.40;9.13;;;;;;;25.63;40.22;95308.06;5084658;28;20063;-86
2022/07/24 00:32:48;;;;;;;20.05;8.90;;;;;;;25.90;40.18;95317.00;5085285;28;20095;-85
2022/07/24 00:35:14;;;;;;;20.80;8.50;;;;;;;25.31;41.11;95287.78;5103698;28;20035;-85
2022/07/24 00:37:40;;;;;;;20.30;8.32;;;;;;;25.52;41.25;95309.81;5084526;28;20501;-85
2022/07/24 00:40:05;;;;;;;27.88;8.02;;;;;;;26.00;41.11;95368.00;5085372;28;20474;-85
2022/07/24 00:42:31;;;;;;;20.42;9.07;;;;;;;25.38;41.60;95307.69;5085815;28;20062;-85
2022/07/24 00:44:56;;;;;;;22.73;8.43;;;;;;;25.46;41.21;95307.78;5084919;28;20046;-86
2022/07/24 00:47:22;;;;;;;20.02;8.68;;;;;;;25.63;41.47;95326.31;5084737;28;20550;-85
2022/07/24 00:49:47;;;;;;;20.55;8.70;;;;;;;24.27;41.26;95118.31;5084825;28;20031;-84
2022/07/24 00:52:13;;;;;;;21.40;9.07;;;;;;;24.01;40.91;95068.31;5084777;28;20027;-85
2022/07/24 00:54:38;;;;;;;16.98;8.45;;;;;;;25.87;41.42;95371.28;5084448;28;20036;-85
2022/07/24 00:57:04;;;;;;;24.42;8.90;;;;;;;25.67;41.19;95355.09;5085478;28;20042;-85
2022/07/24 00:59:29;;;;;;;24.98;9.45;;;;;;;25.80;41.31;95346.72;5103231;28;20296;-85
2022/07/24 01:01:55;;;;;;;20.27;8.90;;;;;;;25.33;41.62;95301.75;5084749;28;20035;-85
2022/07/24 01:04:21;;;;;;;21.92;9.73;;;;;;;25.29;41.73;95315.28;5084508;28;20511;-85
2022/07/24 01:06:47;;;;;;;22.40;9.20;;;;;;;25.71;42.06;95372.22;5103622;28;20067;-85
2022/07/24 01:09:13;;;;;;;28.25;9.57;;;;;;;25.48;41.99;95338.84;5102692;28;20397;-85
2022/07/24 01:11:39;;;;;;;21.08;8.43;;;;;;;23.72;42.20;95096.81;5083971;28;20504;-85
2022/07/24 01:14:06;;;;;;;28.00;9.45;;;;;;;25.19;41.42;95288.75;5081795;28;20028;-85
2022/07/24 01:16:33;;;;;;;25.45;10.68;;;;;;;24.37;42.04;95167.28;5081630;28;20445;-85
2022/07/24 01:18:58;;;;;;;24.63;10.48;;;;;;;25.79;41.81;95383.97;5082862;28;21011;-85
2022/07/24 01:21:25;;;;;;;25.05;10.20;;;;;;;25.51;41.96;95361.78;5085020;28;20067;-85
2022/07/24 01:23:50;;;;;;;20.35;9.65;;;;;;;25.34;42.35;95344.06;5084235;28;20855;-85
2022/07/24 01:26:16;;;;;;;17.33;9.27;;;;;;;25.14;42.36;95310.78;5102896;28;20038;-85
2022/07/24 01:28:41;;;;;;;21.15;9.85;;;;;;;23.82;42.25;95112.47;5082501;28;20293;-85
2022/07/24 01:31:07;;;;;;;20.45;10.60;;;;;;;25.03;42.09;95298.16;5081956;28;20127;-85
2022/07/24 01:33:32;;;;;;;25.50;10.48;;;;;;;24.56;41.78;95216.00;5100081;28;20118;-85
2022/07/24 01:35:58;;;;;;;22.73;9.40;;;;;;;25.11;42.00;95299.84;5082158;28;20114;-85
2022/07/24 01:38:23;;;;;;;21.73;9.90;;;;;;;25.49;41.72;95362.13;5081783;28;20469;-85
2022/07/24 01:40:49;;;;;;;23.95;9.18;;;;;;;23.26;41.63;95017.44;5100455;28;20569;-85
2022/07/24 01:43:14;;;;;;;25.48;9.73;;;;;;;24.32;41.78;95186.56;5081542;28;20046;-85
2022/07/24 01:45:40;;;;;;;24.60;9.30;;;;;;;25.59;41.56;95358.06;5081626;28;20505;-85
2022/07/24 01:48:05;;;;;;;21.50;9.60;;;;;;;24.80;41.72;95247.41;5082568;28;20490;-86
2022/07/24 01:50:31;;;;;;;24.38;9.10;;;;;;;24.92;41.74;95251.91;5082321;28;20577;-85
2022/07/24 01:52:57;;;;;;;24.63;9.30;;;;;;;25.12;41.76;95269.66;5081793;28;20047;-85
2022/07/24 01:55:22;;;;;;;21.48;9.60;;;;;;;25.26;42.09;95321.44;5082755;28;20035;-85
2022/07/24 01:57:48;;;;;;;24.98;9.77;;;;;;;23.89;41.88;95105.59;5082240;28;20039;-85
2022/07/24 02:00:16;;;;;;;18.70;9.45;;;;;;;24.88;41.89;95243.66;5100943;28;20073;-85
2022/07/24 02:02:43;;;;;;;27.20;9.77;;;;;;;24.73;42.28;95241.84;5081908;28;20040;-85
2022/07/24 02:05:12;;;;;;;19.63;8.73;;;;;;;25.01;42.14;95292.34;5100769;28;20046;-85
2022/07/24 02:07:38;;;;;;;19.58;8.85;;;;;;;25.26;42.27;95335.00;5082330;28;20239;-85
2022/07/24 02:10:04;;;;;;;19.15;8.43;;;;;;;25.05;42.66;95320.31;5081683;28;20091;-86
2022/07/24 02:12:30;;;;;;;20.10;9.13;;;;;;;24.04;42.70;95150.78;5081830;28;20046;-85
2022/07/24 02:14:55;;;;;;;22.98;9.07;;;;;;;25.11;42.71;95333.22;5081797;28;20538;-85
2022/07/24 02:17:20;;;;;;;29.23;9.50;;;;;;;23.71;42.83;95102.59;5081514;28;20043;-85
2022/07/24 02:19:46;;;;;;;18.00;9.05;;;;;;;24.86;42.77;95304.84;5081594;28;20185;-85
2022/07/24 02:22:11;;;;;;;18.38;9.45;;;;;;;24.28;43.40;95231.75;5081174;28;20135;-85
2022/07/24 02:24:37;;;;;;;17.65;8.95;;;;;;;24.80;43.18;95315.19;5081406;28;20043;-85
2022/07/24 02:27:02;;;;;;;15.55;8.60;;;;;;;24.66;43.66;95298.69;5099414;28;20125;-85
2022/07/24 02:29:28;;;;;;;18.73;8.82;;;;;;;24.56;43.48;95291.91;5082003;28;20149;-85
2022/07/24 02:31:53;;;;;;;25.90;10.25;;;;;;;24.77;43.46;95307.81;5081102;28;20648;-86
2022/07/24 02:34:18;;;;;;;21.33;8.90;;;;;;;24.88;43.97;95341.31;5082068;28;20758;-85
2022/07/24 02:36:44;;;;;;;26.85;10.02;;;;;;;24.10;43.17;95223.28;5081918;28;20131;-85
2022/07/24 02:39:10;;;;;;;23.85;10.10;;;;;;;24.51;42.97;95284.06;5081723;28;20548;-85
2022/07/24 02:41:35;;;;;;;23.13;10.38;;;;;;;23.87;43.96;95267.69;5081563;28;20119;-85
2022/07/24 02:44:01;;;;;;;22.23;9.77;;;;;;;24.71;43.59;95352.63;5081097;28;20075;-85
2022/07/24 02:46:26;;;;;;;26.15;9.43;;;;;;;24.48;44.15;95354.50;5081404;28;20035;-85
2022/07/24 02:48:52;;;;;;;24.55;9.45;;;;;;;24.18;43.40;95262.13;5081284;28;20506;-85
2022/07/24 02:51:17;;;;;;;13.98;8.57;;;;;;;24.53;43.23;95330.59;5082759;28;20039;-85
2022/07/24 02:53:42;;;;;;;18.77;9.05;;;;;;;24.31;42.97;95282.53;5081543;28;20143;-85
2022/07/24 02:56:08;;;;;;;21.23;9.40;;;;;;;24.56;43.09;95331.81;5083410;28;20028;-85
2022/07/24 02:58:34;;;;;;;23.58;9.95;;;;;;;23.41;43.58;95157.28;5081165;28;20036;-85
2022/07/24 03:00:59;;;;;;;24.77;9.63;;;;;;;22.42;43.14;95002.91;5084132;28;20558;-85
2022/07/24 03:03:25;;;;;;;24.33;9.80;;;;;;;20.93;42.47;94781.56;5082261;28;20482;-85
2022/07/24 03:05:50;;;;;;;28.90;10.10;;;;;;;24.91;42.61;95370.47;5082120;28;20036;-85
2022/07/24 03:08:16;;;;;;;26.83;9.48;;;;;;;24.48;43.07;95305.72;5083488;28;20063;-85
2022/07/24 03:10:41;;;;;;;19.58;8.30;;;;;;;23.85;43.10;95211.97;5082227;28;20410;-85
2022/07/24 03:13:06;;;;;;;21.08;9.30;;;;;;;22.65;43.32;95041.66;5081845;28;20032;-86
2022/07/24 03:15:32;;;;;;;21.02;9.80;;;;;;;24.29;43.15;95284.81;5081759;28;20028;-85
2022/07/24 03:17:57;;;;;;;23.60;9.93;;;;;;;24.73;43.18;95355.75;5081389;28;20050;-85
2022/07/24 03:20:25;;;;;;;19.75;9.20;;;;;;;24.61;43.80;95356.72;5081601;28;20043;-85
2022/07/24 03:22:51;;;;;;;25.60;9.23;;;;;;;23.54;43.06;95176.13;5081150;28;20155;-85
2022/07/24 03:25:16;;;;;;;21.63;9.98;;;;;;;24.28;42.76;95293.31;5082148;28;20065;-85
2022/07/24 03:27:42;;;;;;;30.13;9.70;;;;;;;24.66;43.12;95347.50;5081798;28;20032;-85
2022/07/24 03:30:09;;;;;;;21.50;9.82;;;;;;;24.71;43.01;95344.50;5082991;28;20560;-85
2022/07/24 03:32:35;;;;;;;29.73;10.45;;;;;;;24.42;43.05;95294.34;5083017;28;20892;-85
2022/07/24 03:35:01;;;;;;;22.63;9.68;;;;;;;24.31;43.44;95284.47;5080676;28;20043;-85
2022/07/24 03:37:26;;;;;;;29.88;10.15;;;;;;;23.43;43.61;95167.72;5081008;28;20060;-85
2022/07/24 03:39:52;;;;;;;35.95;10.23;;;;;;;24.00;43.01;95228.50;5081267;28;20485;-85
2022/07/24 03:42:17;;;;;;;29.40;9.68;;;;;;;24.11;42.73;95237.59;5081336;28;20040;-86
2022/07/24 03:44:43;;;;;;;25.30;9.30;;;;;;;24.47;43.14;95283.25;5081861;28;20036;-85
2022/07/24 03:47:08;;;;;;;24.15;10.38;;;;;;;24.43;42.67;95295.94;5082693;28;20036;-85
2022/07/24 03:49:34;;;;;;;26.77;10.48;;;;;;;24.57;42.77;95338.78;5080593;28;20264;-86
2022/07/24 03:51:59;;;;;;;29.10;9.65;;;;;;;24.05;43.16;95275.03;5082112;28;20040;-86
2022/07/24 03:54:25;;;;;;;24.23;11.18;;;;;;;24.39;42.74;95303.22;5081095;28;20128;-85
2022/07/24 03:56:51;;;;;;;35.67;11.63;;;;;;;24.23;43.21;95270.78;5080825;28;20053;-85
2022/07/24 03:59:16;;;;;;;25.13;10.02;;;;;;;24.19;43.45;95279.94;5080630;28;20036;-85
2022/07/24 04:01:42;;;;;;;28.45;10.60;;;;;;;24.65;43.60;95339.69;5081242;28;20043;-85
2022/07/24 04:04:07;;;;;;;19.25;8.80;;;;;;;24.55;43.73;95325.63;5082408;28;20032;-85
2022/07/24 04:06:34;;;;;;;29.35;10.05;;;;;;;24.86;43.53;95357.19;5080587;28;20446;-85
2022/07/24 04:09:00;;;;;;;19.08;9.13;;;;;;;24.58;43.94;95340.34;5080076;28;20028;-85
2022/07/24 04:11:26;;;;;;;24.55;10.30;;;;;;;24.18;43.76;95257.47;5082062;28;20035;-86
2022/07/24 04:13:52;;;;;;;22.77;9.98;;;;;;;24.72;43.87;95362.31;5079867;28;20139;-85
2022/07/24 04:16:17;;;;;;;29.13;10.32;;;;;;;24.87;43.48;95368.81;5080368;28;20032;-84
2022/07/24 04:18:43;;;;;;;33.45;11.25;;;;;;;24.55;43.59;95309.34;5079879;28;20083;-85
2022/07/24 04:21:08;;;;;;;25.98;11.32;;;;;;;24.43;43.65;95287.81;5080412;28;20047;-85
2022/07/24 04:23:34;;;;;;;23.92;10.40;;;;;;;24.78;43.45;95336.50;5080333;28;20054;-85
2022/07/24 04:26:00;;;;;;;26.88;9.60;;;;;;;24.53;43.21;95283.72;5079787;28;20103;-85
2022/07/24 04:28:25;;;;;;;25.23;11.30;;;;;;;24.79;43.17;95338.06;5079908;28;20031;-85
2022/07/24 04:30:52;;;;;;;25.75;10.38;;;;;;;24.44;43.25;95278.53;5081302;28;20442;-86
2022/07/24 04:33:17;;;;;;;18.48;10.75;;;;;;;24.57;43.46;95301.63;5079715;28;20612;-85
2022/07/24 04:35:43;;;;;;;21.85;11.02;;;;;;;24.05;43.39;95225.47;5078599;28;20354;-85
2022/07/24 04:38:08;;;;;;;32.42;11.60;;;;;;;24.52;43.17;95293.00;5091200;28;20058;-86
2022/07/24 04:40:34;;;;;;;29.10;11.23;;;;;;;24.87;42.82;95338.97;5082580;28;20418;-85
2022/07/24 04:42:59;;;;;;;31.15;11.52;;;;;;;24.08;43.60;95232.91;5082744;28;20196;-85
2022/07/24 04:45:24;;;;;;;20.13;10.68;;;;;;;24.64;42.70;95311.84;5101441;28;20512;-85
2022/07/24 04:47:50;;;;;;;28.98;12.20;;;;;;;24.19;42.79;95259.06;5083091;28;20032;-85
2022/07/24 04:50:15;;;;;;;31.48;11.18;;;;;;;24.33;42.41;95303.88;5083096;28;20489;-85
2022/07/24 04:52:41;;;;;;;24.58;10.80;;;;;;;24.08;42.73;95277.03;5082909;28;20044;-85
2022/07/24 04:55:08;;;;;;;26.48;10.82;;;;;;;24.44;42.60;95324.63;5082891;28;20051;-85
2022/07/24 04:57:33;;;;;;;28.65;11.88;;;;;;;24.59;41.98;95312.91;5101922;28;20038;-85
2022/07/24 04:59:59;;;;;;;28.88;12.40;;;;;;;25.00;42.09;95381.09;5100924;28;20035;-85
2022/07/24 05:02:24;;;;;;;25.02;11.15;;;;;;;24.92;41.88;95353.06;5101318;28;20043;-85
2022/07/24 05:04:50;;;;;;;31.83;11.73;;;;;;;24.94;41.68;95358.13;5081279;28;20151;-85
2022/07/24 05:07:15;;;;;;;26.52;11.30;;;;;;;25.00;41.79;95375.66;5081724;28;20042;-85
2022/07/24 05:09:40;;;;;;;20.35;10.10;;;;;;;24.67;41.60;95318.44;5083504;28;20031;-85
2022/07/24 05:12:06;;;;;;;29.17;11.73;;;;;;;25.13;41.09;95385.19;5082511;28;20046;-85
2022/07/24 05:14:32;;;;;;;22.80;9.90;;;;;;;25.14;41.23;95378.63;5101214;28;21141;-85
2022/07/24 05:16:57;;;;;;;24.15;10.68;;;;;;;25.30;41.49;95381.22;5082250;28;20449;-85
2022/07/24 05:19:23;;;;;;;33.60;11.40;;;;;;;24.90;41.19;95308.41;5101899;28;20112;-85
2022/07/24 05:21:48;;;;;;;25.80;10.32;;;;;;;25.09;40.96;95318.44;5081543;28;20039;-85
2022/07/24 05:24:13;;;;;;;20.92;10.73;;;;;;;25.04;40.81;95305.16;5081668;28;20046;-84
2022/07/24 05:26:39;;;;;;;25.88;9.98;;;;;;;24.67;40.41;95246.00;5100187;28;20852;-86
2022/07/24 05:29:06;;;;;;;31.27;10.55;;;;;;;25.60;40.42;95381.34;5082667;28;20039;-85
2022/07/24 05:31:32;;;;;;;30.10;11.23;;;;;;;24.96;39.88;95288.78;5083355;28;20149;-85
2022/07/24 05:33:58;;;;;;;30.13;10.82;;;;;;;25.17;40.40;95318.22;5082161;28;20054;-85
2022/07/24 05:36:25;;;;;;;17.83;10.23;;;;;;;25.44;40.23;95357.03;5081983;28;20059;-85
2022/07/24 05:38:51;;;;;;;30.20;11.52;;;;;;;25.82;39.81;95380.53;5099584;28;20048;-85
2022/07/24 05:41:16;;;;;;;29.38;10.65;;;;;;;25.57;40.39;95352.97;5082158;28;20656;-85
2022/07/24 05:43:42;;;;;;;24.83;10.80;;;;;;;25.84;40.11;95370.09;5082751;28;20043;-85
2022/07/24 05:46:07;;;;;;;32.25;10.30;;;;;;;25.93;39.41;95373.34;5082330;28;20047;-85
2022/07/24 05:48:33;;;;;;;19.98;10.60;;;;;;;25.13;39.31;95263.09;5081637;28;20027;-86
2022/07/24 05:50:59;;;;;;;26.85;10.77;;;;;;;25.87;39.08;95361.19;5081785;28;20062;-86
2022/07/24 05:53:24;;;;;;;23.77;11.07;;;;;;;25.94;39.47;95355.09;5082670;28;20046;-85
2022/07/24 05:55:50;;;;;;;22.77;10.40;;;;;;;25.67;39.80;95325.22;5101028;28;20115;-86
2022/07/24 05:58:16;;;;;;;23.20;10.30;;;;;;;26.14;39.37;95370.13;5081867;28;20503;-85
2022/07/24 06:00:42;;;;;;;25.98;10.43;;;;;;;26.19;39.35;95372.50;5100842;28;20038;-85
2022/07/24 06:03:08;;;;;;;29.95;10.60;;;;;;;26.01;38.76;95366.06;5082350;28;20028;-85
2022/07/24 06:05:33;;;;;;;19.98;10.20;;;;;;;25.94;37.90;95339.56;5082204;28;20032;-85
2022/07/24 06:07:58;;;;;;;25.13;10.25;;;;;;;25.48;37.57;95268.25;5082842;28;20118;-85
2022/07/24 06:10:24;;;;;;;24.95;10.02;;;;;;;26.17;37.68;95352.31;5082197;28;20031;-85
2022/07/24 06:12:49;;;;;;;19.67;10.27;;;;;;;25.57;36.65;95271.50;5085805;28;20039;-85
2022/07/24 06:15:15;;;;;;;21.60;9.68;;;;;;;25.43;37.28;95252.28;5106007;28;20039;-85
2022/07/24 06:17:41;;;;;;;26.15;10.55;;;;;;;26.22;37.95;95385.38;5105301;28;20031;-85
2022/07/24 06:20:08;;;;;;;22.42;10.18;;;;;;;26.26;38.03;95377.28;5105114;28;20036;-85
2022/07/24 06:22:34;;;;;;;23.48;10.25;;;;;;;26.42;37.66;95364.28;5105118;28;20031;-85
2022/07/24 06:25:00;;;;;;;21.38;10.38;;;;;;;25.93;38.04;95277.44;5086875;28;20039;-85
2022/07/24 06:27:25;;;;;;;24.85;10.73;;;;;;;26.43;37.83;95350.31;5085540;28;20123;-86
2022/07/24 06:29:51;;;;;;;28.00;10.63;;;;;;;26.19;37.53;95304.56;5103866;28;20117;-85
2022/07/24 06:32:16;;;;;;;28.60;10.00;;;;;;;25.43;37.84;95183.63;5085739;28;20042;-85
2022/07/24 06:34:42;;;;;;;24.30;10.77;;;;;;;26.32;37.19;95314.06;5104486;28;20030;-86
2022/07/24 06:37:07;;;;;;;26.52;11.63;;;;;;;26.00;37.56;95255.78;5085772;28;20032;-85
2022/07/24 06:39:32;;;;;;;22.30;11.25;;;;;;;26.18;37.80;95280.44;5103742;28;20046;-85
2022/07/24 06:41:58;;;;;;;18.95;10.65;;;;;;;26.66;37.76;95347.47;5104248;28;20043;-85
2022/07/24 06:44:24;;;;;;;24.77;11.15;;;;;;;26.40;37.54;95301.31;5085708;28;20038;-85
2022/07/24 06:46:50;;;;;;;26.92;11.20;;;;;;;26.15;37.63;95260.25;5104283;28;20486;-85
2022/07/24 06:49:15;;;;;;;28.05;10.85;;;;;;;26.58;38.02;95312.41;5086018;28;20103;-85
2022/07/24 06:51:40;;;;;;;21.60;10.65;;;;;;;26.63;38.03;95314.78;5086495;28;20059;-85
2022/07/24 06:54:06;;;;;;;29.52;10.98;;;;;;;26.59;38.24;95322.13;5104280;28;20040;-85
2022/07/24 06:56:31;;;;;;;29.25;11.13;;;;;;;26.03;37.45;95247.66;5085034;28;20417;-85
2022/07/24 06:58:58;;;;;;;22.17;10.10;;;;;;;26.35;37.60;95269.81;5085835;28;20039;-85
2022/07/24 07:01:25;;;;;;;28.52;10.82;;;;;;;25.85;37.51;95203.22;5085114;28;20130;-86
2022/07/24 07:03:52;;;;;;;19.15;10.45;;;;;;;26.60;37.92;95304.66;5085157;28;20123;-86
2022/07/24 07:06:17;;;;;;;25.33;11.10;;;;;;;26.03;38.03;95197.97;5085473;28;20035;-85
2022/07/24 07:08:43;;;;;;;28.63;11.27;;;;;;;26.35;37.80;95222.81;5085251;28;20150;-85
2022/07/24 07:11:08;;;;;;;29.65;11.13;;;;;;;26.56;37.00;95244.78;5085332;28;20024;-86
2022/07/24 07:13:34;;;;;;;22.23;10.85;;;;;;;26.75;37.13;95265.56;5084994;28;20175;-86
2022/07/24 07:16:00;;;;;;;24.65;11.55;;;;;;;27.18;36.64;95321.97;5103064;28;20501;-86
2022/07/24 07:18:25;;;;;;;27.95;10.88;;;;;;;27.28;36.67;95304.94;5085436;28;20039;-86
2022/07/24 07:20:53;;;;;;;21.80;11.35;;;;;;;27.25;36.86;95299.47;5084839;28;20040;-86
2022/07/24 07:23:21;;;;;;;26.10;11.65;;;;;;;27.56;36.53;95336.28;5083820;28;20050;-85
2022/07/24 07:25:46;;;;;;;23.90;10.95;;;;;;;27.53;36.11;95313.34;5085154;28;20039;-86
2022/07/24 07:28:12;;;;;;;26.38;10.75;;;;;;;27.77;37.03;95324.78;5104115;28;20518;-86
2022/07/24 07:30:37;;;;;;;28.33;11.60;;;;;;;27.55;36.83;95272.06;5084889;28;20027;-86
2022/07/24 07:33:03;;;;;;;26.30;11.20;;;;;;;25.95;36.12;95008.84;5103598;28;20490;-86
2022/07/24 07:35:29;;;;;;;26.02;11.60;;;;;;;27.53;35.84;95245.25;5085178;28;20095;-86
2022/07/24 07:37:54;;;;;;;33.53;12.75;;;;;;;27.53;35.14;95252.63;5085154;28;20150;-86
2022/07/24 07:40:20;;;;;;;22.48;11.82;;;;;;;28.02;34.99;95307.41;5103873;28;20074;-86
2022/07/24 07:42:45;;;;;;;29.23;11.38;;;;;;;27.82;34.76;95261.75;5103507;28;20498;-86
2022/07/24 07:45:11;;;;;;;27.33;11.07;;;;;;;28.24;34.65;95308.31;5085070;28;20065;-86
2022/07/24 07:47:37;;;;;;;26.90;11.15;;;;;;;28.35;34.60;95325.50;5103634;28;20089;-86
2022/07/24 07:50:04;;;;;;;25.77;10.98;;;;;;;28.33;34.46;95318.84;5084601;28;20035;-86
2022/07/24 07:52:29;;;;;;;26.77;11.20;;;;;;;28.15;34.38;95272.41;5085649;28;20568;-86
2022/07/24 07:54:55;;;;;;;22.63;10.73;;;;;;;28.53;34.24;95320.13;5085043;28;20036;-86
2022/07/24 07:57:20;;;;;;;32.00;11.40;;;;;;;26.75;34.13;95047.94;5102827;28;20432;-86
2022/07/24 07:59:46;;;;;;;24.50;10.93;;;;;;;28.52;33.45;95324.00;5085566;28;20422;-86
2022/07/24 08:02:11;;;;;;;35.88;10.27;;;;;;;27.95;32.92;95222.06;5085588;28;20027;-86
2022/07/24 08:04:36;;;;;;;22.88;8.60;;;;;;;28.61;32.42;95315.47;5083990;28;20135;-86
2022/07/24 08:07:02;;;;;;;20.58;9.43;;;;;;;28.32;32.67;95244.44;5084499;28;20489;-86
2022/07/24 08:09:27;;;;;;;23.23;9.60;;;;;;;28.09;32.79;95200.31;5084230;28;20509;-86
2022/07/24 08:11:53;;;;;;;20.58;9.55;;;;;;;29.00;33.31;95315.56;5083851;28;20062;-86
2022/07/24 08:14:18;;;;;;;19.70;9.38;;;;;;;28.84;32.70;95290.59;5084443;28;20047;-86
2022/07/24 08:16:44;;;;;;;30.50;10.38;;;;;;;28.30;31.85;95192.22;5102558;28;20067;-86
2022/07/24 08:19:09;;;;;;;27.98;9.20;;;;;;;29.18;31.69;95324.56;5084344;28;20035;-86
2022/07/24 08:21:35;;;;;;;24.05;10.52;;;;;;;28.99;32.97;95301.13;5082694;28;20043;-86
2022/07/24 08:24:00;;;;;;;25.08;10.02;;;;;;;29.07;32.78;95282.78;5102048;28;20043;-86
2022/07/24 08:26:30;;;;;;;25.05;10.27;;;;;;;28.94;31.46;95246.13;5084427;28;20406;-86
2022/07/24 08:28:57;;;;;;;19.52;9.25;;;;;;;28.59;30.88;95190.34;5083912;28;20031;-85
2022/07/24 08:31:24;;;;;;;24.95;9.93;;;;;;;29.03;30.98;95250.03;5084755;28;20043;-86
2022/07/24 08:33:50;;;;;;;23.48;9.95;;;;;;;29.38;30.98;95265.66;5084376;28;20494;-86
2022/07/24 08:36:16;;;;;;;29.80;10.52;;;;;;;29.86;30.49;95322.59;5084275;28;20101;-87
2022/07/24 08:38:41;;;;;;;25.98;9.68;;;;;;;29.45;30.32;95245.75;5084402;28;20058;-86
2022/07/24 08:41:07;;;;;;;24.02;9.57;;;;;;;29.80;29.72;95251.16;5084562;28;20039;-86
2022/07/24 08:43:33;;;;;;;27.08;10.63;;;;;;;29.95;30.32;95278.47;5084243;28;20046;-86
2022/07/24 08:46:00;;;;;;;23.83;10.38;;;;;;;30.38;30.29;95312.69;5103465;28;20130;-85
2022/07/24 08:48:27;;;;;;;25.58;10.13;;;;;;;30.37;29.88;95270.09;5104504;28;20039;-85
2022/07/24 08:50:52;;;;;;;24.55;9.82;;;;;;;30.49;30.17;95275.13;5086918;28;20134;-85
2022/07/24 08:53:23;;;;;;;28.65;10.20;;;;;;;30.11;30.14;95186.59;5086315;28;20131;-85
2022/07/24 08:55:48;;;;;;;33.15;11.15;;;;;;;30.78;29.83;95283.97;5104218;28;20027;-86
2022/07/24 08:58:14;;;;;;;26.95;10.88;;;;;;;30.45;29.75;95246.19;5085282;28;20043;-85
2022/07/24 09:00:41;;;;;;;28.48;10.45;;;;;;;30.69;29.63;95248.84;5104456;28;20023;-86
2022/07/24 09:03:06;;;;;;;24.88;10.35;;;;;;;31.05;29.30;95287.69;5103483;28;20047;-85
2022/07/24 09:05:34;;;;;;;26.40;9.40;;;;;;;30.97;29.31;95258.81;5083651;28;20058;-85
2022/07/24 09:08:07;;;;;;;27.17;10.63;;;;;;;31.10;29.29;95256.41;5101707;28;20036;-85
2022/07/24 09:10:33;;;;;;;29.63;9.60;;;;;;;31.28;29.02;95298.13;5094616;28;20522;-85
2022/07/24 09:13:12;;;;;;;23.05;9.75;;;;;;;31.61;28.51;95298.66;5081597;28;20597;-85
2022/07/24 09:15:48;;;;;;;30.67;11.02;;;;;;;31.41;29.15;95292.94;5082989;28;20103;-85
2022/07/24 09:18:27;;;;;;;35.13;10.98;;;;;;;31.03;29.37;95240.00;5083507;28;20058;-85
2022/07/24 09:20:53;;;;;;;26.60;10.40;;;;;;;31.35;28.66;95247.97;5082608;28;20023;-85
2022/07/24 09:23:19;;;;;;;27.90;10.57;;;;;;;31.28;29.27;95267.22;5082911;28;20599;-85
2022/07/24 09:25:51;;;;;;;27.00;10.45;;;;;;;30.98;29.11;95252.16;5101141;28;20390;-85
2022/07/24 09:28:16;;;;;;;21.17;10.27;;;;;;;31.11;29.52;95279.09;5102324;28;20035;-85
2022/07/24 09:30:43;;;;;;;23.05;9.68;;;;;;;31.37;29.13;95287.47;5083183;28;20046;-85
2022/07/24 09:33:11;;;;;;;26.52;9.85;;;;;;;31.44;29.55;95283.91;5083611;28;20462;-86
2022/07/24 09:35:38;;;;;;;20.02;9.27;;;;;;;31.44;28.98;95294.84;5082265;28;20107;-86
2022/07/24 09:38:05;;;;;;;29.20;10.57;;;;;;;30.48;28.37;95180.53;5083278;28;20060;-85
2022/07/24 09:40:34;;;;;;;26.48;10.20;;;;;;;31.01;29.32;95295.16;5081820;28;20127;-85
2022/07/24 09:43:20;;;;;;;26.10;10.43;;;;;;;31.20;29.04;95285.69;5101079;28;20456;-86
2022/07/24 09:45:57;;;;;;;22.42;10.18;;;;;;;31.21;28.79;95287.22;5099459;28;20032;-85
2022/07/24 09:48:34;;;;;;;23.85;10.02;;;;;;;30.73;29.34;95172.19;5082345;28;20035;-86
2022/07/24 09:51:12;;;;;;;23.88;9.77;;;;;;;31.47;28.52;95280.34;5082270;28;20562;-86
2022/07/24 09:53:38;;;;;;;26.20;9.27;;;;;;;31.25;28.24;95211.28;5099834;28;20031;-86
2022/07/24 09:56:15;;;;;;;26.77;9.68;;;;;;;32.03;26.90;95242.59;5082561;28;20114;-86
2022/07/24 09:58:44;;;;;;;22.23;9.35;;;;;;;33.15;25.87;95268.94;5101667;28;20043;-86
2022/07/24 10:01:10;;;;;;;28.02;9.32;;;;;;;33.96;24.96;95229.06;5082226;28;20043;-86
2022/07/24 10:03:40;;;;;;;24.17;8.77;;;;;;;34.53;23.67;95210.63;5101026;28;20634;-86
2022/07/24 10:06:11;;;;;;;17.35;7.57;;;;;;;35.56;21.50;95234.53;5082896;28;20678;-85
2022/07/24 10:08:40;;;;;;;24.10;7.95;;;;;;;36.44;20.53;95254.66;5100259;28;20036;-85
2022/07/24 10:11:06;;;;;;;21.85;7.95;;;;;;;36.84;20.75;95216.38;5100367;28;20110;-85
2022/07/24 10:13:33;;;;;;;28.02;9.57;;;;;;;37.15;20.08;95214.63;5100349;28;20604;-85
2022/07/24 10:16:13;;;;;;;20.77;7.78;;;;;;;37.59;19.94;95250.72;5081733;28;20034;-85
2022/07/24 10:18:54;;;;;;;19.08;6.47;;;;;;;36.97;18.86;95184.75;5100700;28;20038;-84
2022/07/24 10:21:27;;;;;;;19.35;6.53;;;;;;;37.38;19.18;95221.75;5100443;28;20042;-85
2022/07/24 10:24:25;;;;;;;16.50;7.03;;;;;;;37.79;18.51;95185.53;5081857;28;20417;-84
2022/07/24 10:26:53;;;;;;;20.05;7.15;;;;;;;37.90;18.87;95218.41;5081212;28;20553;-85
2022/07/24 10:29:21;;;;;;;16.85;6.40;;;;;;;37.39;18.32;95179.03;5094029;28;20125;-85
2022/07/24 10:31:47;;;;;;;14.85;6.70;;;;;;;38.34;18.33;95235.78;5081511;28;20421;-85
2022/07/24 10:34:47;;;;;;;23.55;7.43;;;;;;;38.44;18.73;95237.41;5081543;28;20154;-85
2022/07/24 10:37:31;;;;;;;21.50;7.03;;;;;;;38.22;18.00;95231.84;5100194;28;20035;-85
2022/07/24 10:40:26;;;;;;;16.30;7.18;;;;;;;37.90;18.76;95218.41;5081574;28;20074;-86
2022/07/24 10:43:09;;;;;;;20.88;6.93;;;;;;;38.45;18.23;95232.63;5059585;28;20385;-85
2022/07/24 10:45:36;;;;;;;17.50;6.55;;;;;;;38.29;17.94;95225.31;5080817;28;20039;-85
2022/07/24 10:48:26;;;;;;;29.10;7.60;;;;;;;38.19;18.35;95196.00;5099538;28;20036;-85
2022/07/24 10:51:02;;;;;;;15.27;5.82;;;;;;;38.47;17.82;95222.63;5086696;28;20058;-85
2022/07/24 10:53:42;;;;;;;12.90;6.35;;;;;;;38.80;17.67;95217.44;5093474;28;20031;-85
2022/07/24 10:56:17;;;;;;;16.83;6.47;;;;;;;38.56;17.59;95189.44;5081500;28;20157;-85
2022/07/24 10:58:54;;;;;;;17.20;7.00;;;;;;;38.84;17.37;95214.50;5083371;28;20051;-86
2022/07/24 11:01:32;;;;;;;11.45;6.13;;;;;;;39.24;17.13;95208.94;5084955;28;20094;-85
2022/07/24 11:03:59;;;;;;;16.73;5.90;;;;;;;39.37;17.28;95206.81;5084978;28;20500;-85
2022/07/24 11:06:44;;;;;;;14.93;6.57;;;;;;;39.12;17.35;95201.53;5104341;28;20040;-85
2022/07/24 11:09:11;;;;;;;14.70;5.50;;;;;;;38.93;17.46;95200.69;5085582;28;20038;-85
2022/07/24 11:11:41;;;;;;;11.48;5.68;;;;;;;38.63;17.60;95154.38;5084967;28;20031;-84
2022/07/24 11:14:07;;;;;;;10.52;6.20;;;;;;;38.63;17.75;95201.47;5104050;28;20036;-85
2022/07/24 11:16:34;;;;;;;20.23;6.93;;;;;;;37.84;18.12;95126.84;5085132;28;20031;-86
2022/07/24 11:18:59;;;;;;;14.40;6.18;;;;;;;38.38;17.99;95197.63;5102386;28;20044;-86
2022/07/24 11:21:43;;;;;;;14.25;6.20;;;;;;;38.19;18.22;95185.69;5084753;28;20046;-85